Airport ID:KEDC
Update Time (UTC):29 MAY 17 22:50
Wind Speed (Knots):CALM
Wind Direction (Magnetic):
Temperature (°C):29
Dew Point (°C):19
Humidity (%):57
Altimeter (inHg):29.98
Density Altitude (Feet):2300
Visibility (Miles):10
Clouds (Hundreds of feet):CLR
Present Weather:NO PRECIPITATION
METAR:METAR KEDC 292250Z AUTO 00000KT 10SM CLR 29/19 A2998 RMK AO2

The data displayed is for advisory purposes only and is not to be used for flight planning or operations.

This page is not automatically refreshed. Reload the page to see current data.